Time;durP1;ratioP1;P1;durP2;ratioP2;P2;SDS_P1;SDS_P2;PMS_P1;PMS_P2;Temp;Humidity;BMP_temperature;BMP_pressure;BME280_temperature;BME280_humidity;BME280_pressure;Samples;Min_cycle;Max_cycle;Signal;HPM_P1;HPM_P2
2020/12/07 00:02:03;;;;;;;;;;;3.90;99.90;;;;;;5091919;28;19924;-75
2020/12/07 00:04:29;;;;;;;;;;;3.90;99.90;;;;;;5071261;28;19924;-75
2020/12/07 00:06:55;;;;;;;;;;;3.80;99.90;;;;;;5073493;28;20373;-75
2020/12/07 00:09:22;;;;;;;;;;;3.80;99.90;;;;;;5088707;28;19924;-75
2020/12/07 00:11:48;;;;;;;;;;;3.70;99.90;;;;;;5090902;28;20026;-75
2020/12/07 00:14:15;;;;;;;;;;;3.70;99.90;;;;;;5089283;28;19928;-75
2020/12/07 00:16:45;;;;;;;;;;;3.70;99.90;;;;;;5091097;28;20372;-75
2020/12/07 00:19:11;;;;;;;;;;;3.70;99.90;;;;;;5089101;28;20046;-75
2020/12/07 00:21:38;;;;;;;;;;;3.70;99.90;;;;;;5091276;28;19924;-77
2020/12/07 00:24:04;;;;;;;;;;;3.80;99.90;;;;;;5089501;28;20390;-75
2020/12/07 00:26:31;;;;;;;;;;;3.70;99.90;;;;;;5091972;28;19974;-75
2020/12/07 00:28:58;;;;;;;;;;;3.80;99.90;;;;;;5088681;28;20590;-75
2020/12/07 00:31:25;;;;;;;;;;;3.90;99.90;;;;;;5091597;28;19924;-75
2020/12/07 00:33:57;;;;;;;;;;;3.80;99.90;;;;;;5088674;28;20001;-75
2020/12/07 00:36:24;;;;;;;;;;;3.80;99.90;;;;;;5092003;28;19924;-74
2020/12/07 00:38:51;;;;;;;;;;;3.80;99.90;;;;;;5088759;28;20027;-75
2020/12/07 00:41:21;;;;;;;;;;;3.80;99.90;;;;;;5091535;28;20393;-74
2020/12/07 00:43:47;;;;;;;;;;;3.90;99.90;;;;;;5090904;28;19954;-75
2020/12/07 00:46:14;;;;;;;;;;;3.90;99.90;;;;;;5092328;28;20397;-75
2020/12/07 00:48:40;;;;;;;;;;;3.90;99.90;;;;;;5094441;28;19951;-75
2020/12/07 00:51:07;;;;;;;;;;;3.90;99.90;;;;;;5092458;28;19924;-75
2020/12/07 00:53:34;;;;;;;;;;;3.80;99.90;;;;;;5077159;28;19931;-75
2020/12/07 00:56:00;;;;;;;;;;;3.80;99.90;;;;;;5073494;28;19954;-75
2020/12/07 00:58:26;;;;;;;;;;;3.80;99.90;;;;;;5077126;28;19924;-75
2020/12/07 01:00:53;;;;;;;;;;;3.90;99.90;;;;;;5073755;28;20363;-75
2020/12/07 01:03:20;;;;;;;;;;;4.00;99.90;;;;;;5077029;28;20053;-75
2020/12/07 01:05:46;;;;;;;;;;;4.00;99.90;;;;;;5091479;28;20017;-75
2020/12/07 01:08:15;;;;;;;;;;;4.00;99.90;;;;;;5076756;28;19962;-75
2020/12/07 01:10:41;;;;;;;;;;;3.90;99.90;;;;;;5090982;28;20381;-75
2020/12/07 01:13:07;;;;;;;;;;;3.80;99.90;;;;;;5095155;28;19959;-75
2020/12/07 01:15:34;;;;;;;;;;;3.80;99.90;;;;;;5073873;28;19976;-75
2020/12/07 01:18:01;;;;;;;;;;;3.80;99.90;;;;;;5076094;28;19924;-75
2020/12/07 01:20:29;;;;;;;;;;;3.80;99.90;;;;;;5074020;28;19974;-74
2020/12/07 01:22:55;;;;;;;;;;;3.80;99.90;;;;;;5076048;28;20369;-74
2020/12/07 01:25:23;;;;;;;;;;;3.80;99.90;;;;;;5076413;28;19928;-75
2020/12/07 01:27:49;;;;;;;;;;;3.80;99.90;;;;;;5091551;28;19973;-74
2020/12/07 01:30:20;;;;;;;;;;;3.80;99.90;;;;;;5076460;28;19928;-75
2020/12/07 01:32:47;;;;;;;;;;;3.80;99.90;;;;;;5072833;28;19931;-75
2020/12/07 01:35:13;;;;;;;;;;;3.80;99.90;;;;;;5094653;28;19924;-74
2020/12/07 01:37:40;;;;;;;;;;;3.80;99.90;;;;;;5069592;28;19925;-75
2020/12/07 01:40:09;;;;;;;;;;;3.80;99.90;;;;;;5072963;28;20400;-74
2020/12/07 01:42:36;;;;;;;;;;;3.80;99.90;;;;;;5073556;28;20364;-75
2020/12/07 01:45:03;;;;;;;;;;;3.80;99.90;;;;;;5076001;28;20026;-74
2020/12/07 01:47:29;;;;;;;;;;;3.70;99.90;;;;;;5073357;28;19979;-75
2020/12/07 01:50:01;;;;;;;;;;;3.70;99.90;;;;;;5075207;28;19962;-74
2020/12/07 01:52:30;;;;;;;;;;;3.70;99.90;;;;;;5073372;28;19934;-73
2020/12/07 01:54:56;;;;;;;;;;;3.70;99.90;;;;;;5075490;28;19963;-74
2020/12/07 01:57:31;;;;;;;;;;;3.60;99.90;;;;;;5072782;28;19931;-74
2020/12/07 02:00:01;;;;;;;;;;;3.60;99.90;;;;;;5074979;28;19931;-76
2020/12/07 02:02:29;;;;;;;;;;;3.60;99.90;;;;;;5091482;28;19924;-73
2020/12/07 02:04:56;;;;;;;;;;;3.60;99.90;;;;;;5075254;28;19978;-75
2020/12/07 02:07:22;;;;;;;;;;;3.60;99.90;;;;;;5072883;28;19981;-76
2020/12/07 02:09:53;;;;;;;;;;;3.50;99.90;;;;;;5092808;28;19924;-76
2020/12/07 02:12:20;;;;;;;;;;;3.50;99.90;;;;;;5090695;28;20466;-76
2020/12/07 02:14:47;;;;;;;;;;;3.50;99.90;;;;;;5075020;28;20373;-75
2020/12/07 02:17:15;;;;;;;;;;;3.50;99.90;;;;;;5075549;28;19928;-76
2020/12/07 02:19:42;;;;;;;;;;;3.50;99.90;;;;;;5071705;28;19924;-74
2020/12/07 02:22:11;;;;;;;;;;;3.50;99.90;;;;;;5093687;28;19951;-76
2020/12/07 02:24:46;;;;;;;;;;;3.50;99.90;;;;;;5072268;28;19930;-73
2020/12/07 02:27:26;;;;;;;;;;;3.60;99.90;;;;;;5075451;28;19924;-73
2020/12/07 02:29:53;;;;;;;;;;;3.60;99.90;;;;;;5071729;28;19924;-74
2020/12/07 02:32:20;;;;;;;;;;;3.60;99.90;;;;;;5075254;28;19934;-73
2020/12/07 02:35:04;;;;;;;;;;;3.60;99.90;;;;;;5091058;28;20019;-73
2020/12/07 02:37:39;;;;;;;;;;;3.60;99.90;;;;;;5074672;28;20015;-76
2020/12/07 02:40:07;;;;;;;;;;;3.60;99.90;;;;;;5090159;28;19924;-74
2020/12/07 02:42:34;;;;;;;;;;;3.50;99.90;;;;;;5075177;28;19954;-73
2020/12/07 02:45:04;;;;;;;;;;;3.40;99.90;;;;;;5072227;28;19932;-73
2020/12/07 02:47:30;;;;;;;;;;;3.40;99.90;;;;;;5074838;28;19927;-73
2020/12/07 02:49:56;;;;;;;;;;;3.40;99.90;;;;;;5071315;28;20011;-74
2020/12/07 02:52:25;;;;;;;;;;;3.40;99.90;;;;;;5074764;28;19977;-73
2020/12/07 02:54:53;;;;;;;;;;;3.40;99.90;;;;;;5071339;28;19931;-73
2020/12/07 02:57:24;;;;;;;;;;;3.40;99.90;;;;;;5074774;28;19947;-73
2020/12/07 02:59:52;;;;;;;;;;;3.40;99.90;;;;;;5070842;28;20023;-74
2020/12/07 03:02:19;;;;;;;;;;;3.40;99.90;;;;;;5074866;28;20022;-73
2020/12/07 03:04:48;;;;;;;;;;;3.40;99.90;;;;;;5071489;28;20293;-73
2020/12/07 03:07:16;;;;;;;;;;;3.50;99.90;;;;;;5073981;28;19927;-73
2020/12/07 03:09:47;;;;;;;;;;;3.50;99.90;;;;;;5070645;28;19932;-74
2020/12/07 03:12:15;;;;;;;;;;;3.50;99.90;;;;;;5074752;28;19924;-74
2020/12/07 03:14:42;;;;;;;;;;;3.50;99.90;;;;;;5072119;28;19935;-75
2020/12/07 03:17:09;;;;;;;;;;;3.50;99.90;;;;;;5073685;28;19928;-75
2020/12/07 03:19:35;;;;;;;;;;;3.50;99.90;;;;;;5074504;28;20291;-74
2020/12/07 03:22:03;;;;;;;;;;;3.50;99.90;;;;;;5089806;28;20349;-74
2020/12/07 03:24:30;;;;;;;;;;;3.50;99.90;;;;;;5074836;28;19928;-74
2020/12/07 03:26:57;;;;;;;;;;;3.50;99.90;;;;;;5071133;28;19963;-74
2020/12/07 03:29:27;;;;;;;;;;;3.50;99.90;;;;;;5074127;28;19924;-75
2020/12/07 03:31:54;;;;;;;;;;;3.60;99.90;;;;;;5070898;28;19935;-74
2020/12/07 03:34:21;;;;;;;;;;;3.50;99.90;;;;;;5074413;28;19930;-74
2020/12/07 03:36:49;;;;;;;;;;;3.50;99.90;;;;;;5071194;28;20335;-74
2020/12/07 03:39:19;;;;;;;;;;;3.50;99.90;;;;;;5074392;28;19939;-74
2020/12/07 03:41:54;;;;;;;;;;;3.50;99.90;;;;;;5070536;28;19928;-74
2020/12/07 03:44:21;;;;;;;;;;;3.50;99.90;;;;;;5074219;28;20368;-74
2020/12/07 03:46:48;;;;;;;;;;;3.40;99.90;;;;;;5070665;28;20038;-75
2020/12/07 03:49:16;;;;;;;;;;;3.30;99.90;;;;;;5073844;28;20003;-74
2020/12/07 03:51:42;;;;;;;;;;;3.30;99.90;;;;;;5070337;28;19924;-74
2020/12/07 03:54:10;;;;;;;;;;;3.30;99.90;;;;;;5074204;28;19963;-74
2020/12/07 03:56:38;;;;;;;;;;;3.30;99.90;;;;;;5071740;28;20265;-73
2020/12/07 03:59:05;;;;;;;;;;;3.30;99.90;;;;;;5074011;28;19924;-74
2020/12/07 04:01:31;;;;;;;;;;;3.40;99.90;;;;;;5071791;28;20309;-74
2020/12/07 04:04:01;;;;;;;;;;;3.50;99.90;;;;;;5072522;28;19947;-74
2020/12/07 04:06:31;;;;;;;;;;;3.50;99.90;;;;;;5074053;28;19924;-74
2020/12/07 04:09:00;;;;;;;;;;;3.60;99.90;;;;;;5069768;28;20171;-74
2020/12/07 04:11:26;;;;;;;;;;;3.60;99.90;;;;;;5073815;28;19924;-74
2020/12/07 04:13:52;;;;;;;;;;;3.60;99.90;;;;;;5088564;28;20335;-73
2020/12/07 04:16:18;;;;;;;;;;;3.60;99.90;;;;;;5073960;28;20019;-74
2020/12/07 04:18:45;;;;;;;;;;;3.60;99.90;;;;;;5088732;28;19954;-73
2020/12/07 04:21:12;;;;;;;;;;;3.60;99.90;;;;;;5095921;28;19934;-73
2020/12/07 04:23:38;;;;;;;;;;;3.80;99.90;;;;;;5092293;28;19955;-77
2020/12/07 04:26:04;;;;;;;;;;;4.00;99.90;;;;;;5095790;28;20015;-73
2020/12/07 04:28:31;;;;;;;;;;;4.00;99.90;;;;;;5092537;28;20377;-74
2020/12/07 04:30:57;;;;;;;;;;;3.90;99.90;;;;;;5094834;28;20030;-73
2020/12/07 04:33:23;;;;;;;;;;;4.00;99.90;;;;;;5092426;28;19924;-73
2020/12/07 04:35:50;;;;;;;;;;;4.00;99.90;;;;;;5094949;28;19928;-73
2020/12/07 04:38:17;;;;;;;;;;;3.80;99.90;;;;;;5092780;28;19977;-73
2020/12/07 04:40:43;;;;;;;;;;;3.70;99.90;;;;;;5094534;28;19931;-74
2020/12/07 04:43:10;;;;;;;;;;;3.80;99.90;;;;;;5092782;28;19947;-74
2020/12/07 04:45:36;;;;;;;;;;;3.80;99.90;;;;;;5094762;28;20334;-73
2020/12/07 04:48:02;;;;;;;;;;;3.90;99.90;;;;;;5094184;28;19928;-74
2020/12/07 04:50:29;;;;;;;;;;;3.90;99.90;;;;;;5092500;28;19924;-73
2020/12/07 04:52:56;;;;;;;;;;;3.80;99.90;;;;;;5076388;28;19931;-73
2020/12/07 04:55:23;;;;;;;;;;;3.90;99.90;;;;;;5092930;28;19928;-73
2020/12/07 04:57:50;;;;;;;;;;;4.00;99.90;;;;;;5094379;28;20429;-73
2020/12/07 05:00:18;;;;;;;;;;;4.00;99.90;;;;;;5091958;28;20450;-73
2020/12/07 05:02:44;;;;;;;;;;;3.90;99.90;;;;;;5076101;28;19967;-73
2020/12/07 05:05:11;;;;;;;;;;;4.00;99.90;;;;;;5092265;28;19978;-73
2020/12/07 05:07:37;;;;;;;;;;;4.00;99.90;;;;;;5076702;28;19978;-73
2020/12/07 05:10:11;;;;;;;;;;;4.00;99.90;;;;;;5091889;28;19942;-73
2020/12/07 05:12:41;;;;;;;;;;;3.90;99.90;;;;;;5094953;28;20009;-73
2020/12/07 05:15:10;;;;;;;;;;;3.90;99.90;;;;;;5073885;28;19959;-73
2020/12/07 05:17:36;;;;;;;;;;;4.00;99.90;;;;;;5095022;28;19930;-73
2020/12/07 05:20:03;;;;;;;;;;;4.00;99.90;;;;;;5090953;28;19976;-73
2020/12/07 05:22:30;;;;;;;;;;;4.00;99.90;;;;;;5076689;28;19928;-75
2020/12/07 05:24:56;;;;;;;;;;;4.00;99.90;;;;;;5091468;28;19924;-73
2020/12/07 05:27:26;;;;;;;;;;;3.90;99.90;;;;;;5094344;28;19924;-73
2020/12/07 05:30:03;;;;;;;;;;;3.80;99.90;;;;;;5074030;28;19958;-74
2020/12/07 05:32:31;;;;;;;;;;;3.70;99.90;;;;;;5074377;28;20023;-73
2020/12/07 05:34:58;;;;;;;;;;;3.70;99.90;;;;;;5093503;28;19930;-73
2020/12/07 05:37:24;;;;;;;;;;;3.70;99.90;;;;;;5073237;28;19924;-73
2020/12/07 05:39:51;;;;;;;;;;;3.70;99.90;;;;;;5075243;28;20023;-73
2020/12/07 05:42:18;;;;;;;;;;;3.70;99.90;;;;;;5091215;28;19924;-74
2020/12/07 05:44:45;;;;;;;;;;;3.70;99.90;;;;;;5093132;28;19924;-74
2020/12/07 05:47:13;;;;;;;;;;;3.70;99.90;;;;;;5091133;28;19949;-74
2020/12/07 05:49:39;;;;;;;;;;;3.70;99.90;;;;;;5092815;28;19968;-74
2020/12/07 05:52:05;;;;;;;;;;;3.70;99.90;;;;;;5090962;28;19995;-73
2020/12/07 05:54:32;;;;;;;;;;;3.70;99.90;;;;;;5094180;28;19924;-73
2020/12/07 05:57:09;;;;;;;;;;;3.70;99.90;;;;;;5091025;28;20131;-73
2020/12/07 05:59:40;;;;;;;;;;;3.60;99.90;;;;;;5093710;28;20355;-73
2020/12/07 06:02:08;;;;;;;;;;;3.60;99.90;;;;;;5073413;28;20014;-73
2020/12/07 06:04:35;;;;;;;;;;;3.60;99.90;;;;;;5093616;28;19934;-73
2020/12/07 06:07:02;;;;;;;;;;;3.70;99.90;;;;;;5089896;28;19974;-73
2020/12/07 06:09:30;;;;;;;;;;;3.70;99.90;;;;;;5092472;28;19930;-75
2020/12/07 06:11:58;;;;;;;;;;;3.70;99.90;;;;;;5071903;28;19931;-74
2020/12/07 06:14:24;;;;;;;;;;;3.70;99.90;;;;;;5093347;28;20073;-74
2020/12/07 06:16:51;;;;;;;;;;;3.80;99.90;;;;;;5072334;28;19967;-75
2020/12/07 06:19:18;;;;;;;;;;;3.80;99.90;;;;;;5074755;28;19964;-75
2020/12/07 06:21:51;;;;;;;;;;;3.80;99.90;;;;;;5092651;28;20418;-75
2020/12/07 06:24:17;;;;;;;;;;;3.70;99.90;;;;;;5091568;28;20384;-75
2020/12/07 06:26:43;;;;;;;;;;;3.80;99.90;;;;;;5092992;28;19923;-75
2020/12/07 06:29:13;;;;;;;;;;;3.80;99.90;;;;;;5089728;28;20457;-74
2020/12/07 06:31:39;;;;;;;;;;;3.80;99.90;;;;;;5092858;28;20020;-75
2020/12/07 06:34:09;;;;;;;;;;;3.80;99.90;;;;;;5090049;28;20383;-75
2020/12/07 06:36:37;;;;;;;;;;;3.80;99.90;;;;;;5093448;28;20381;-75
2020/12/07 06:39:07;;;;;;;;;;;3.80;99.90;;;;;;5088923;28;20852;-75
2020/12/07 06:41:35;;;;;;;;;;;3.80;99.90;;;;;;5092992;28;19924;-74
2020/12/07 06:44:02;;;;;;;;;;;3.80;99.90;;;;;;5088370;28;19943;-74
2020/12/07 06:46:48;;;;;;;;;;;3.80;99.90;;;;;;5093253;28;19924;-74
2020/12/07 06:49:15;;;;;;;;;;;3.90;99.90;;;;;;5083673;28;19925;-74
2020/12/07 06:51:45;;;;;;;;;;;3.80;99.90;;;;;;5055872;28;19932;-74
2020/12/07 06:57:18;;;;;;;;;;;3.80;99.90;;;;;;5072989;28;19924;-74
2020/12/07 06:59:52;;;;;;;;;;;3.80;99.90;;;;;;5088840;28;20338;-74
2020/12/07 07:02:18;;;;;;;;;;;3.90;99.90;;;;;;5092927;28;20007;-73
2020/12/07 07:04:50;;;;;;;;;;;3.90;99.90;;;;;;5089137;28;19946;-74
2020/12/07 07:07:18;;;;;;;;;;;3.90;99.90;;;;;;5092380;28;19931;-73
2020/12/07 07:09:45;;;;;;;;;;;3.90;99.90;;;;;;5077122;28;20019;-74
2020/12/07 07:12:12;;;;;;;;;;;3.90;99.90;;;;;;5092757;28;20364;-73
2020/12/07 07:14:38;;;;;;;;;;;4.00;99.90;;;;;;5089459;28;19924;-76
2020/12/07 07:17:05;;;;;;;;;;;3.90;99.90;;;;;;5092432;28;19924;-74
2020/12/07 07:19:31;;;;;;;;;;;3.90;99.90;;;;;;5082272;28;20434;-74
2020/12/07 07:21:58;;;;;;;;;;;3.90;99.90;;;;;;5091654;28;19924;-74
2020/12/07 07:24:29;;;;;;;;;;;3.90;99.90;;;;;;5089324;28;19974;-74
2020/12/07 07:27:06;;;;;;;;;;;3.90;99.90;;;;;;5091650;28;19930;-73
2020/12/07 07:29:32;;;;;;;;;;;4.00;99.90;;;;;;5090185;28;20329;-74
2020/12/07 07:31:59;;;;;;;;;;;4.00;99.90;;;;;;5091338;28;20114;-74
2020/12/07 07:34:25;;;;;;;;;;;4.00;99.90;;;;;;5074985;28;20464;-73
2020/12/07 07:36:51;;;;;;;;;;;3.90;99.90;;;;;;5087099;28;19924;-74
2020/12/07 07:39:18;;;;;;;;;;;3.90;99.90;;;;;;5088684;28;19924;-74
2020/12/07 07:41:45;;;;;;;;;;;3.90;99.90;;;;;;5050917;28;19925;-74
2020/12/07 07:44:14;;;;;;;;;;;4.00;99.90;;;;;;5071931;28;19925;-73
2020/12/07 07:46:41;;;;;;;;;;;4.00;99.90;;;;;;5082144;28;19928;-75
2020/12/07 07:49:19;;;;;;;;;;;4.10;99.90;;;;;;5091703;28;19924;-76
2020/12/07 08:16:55;;;;;;;;;;;4.60;99.90;;;;;;5092683;28;20435;-74
2020/12/07 08:19:22;;;;;;;;;;;4.50;99.90;;;;;;5085957;28;20411;-74
2020/12/07 08:21:48;;;;;;;;;;;4.60;99.90;;;;;;5072573;28;20400;-74
2020/12/07 08:24:14;;;;;;;;;;;4.50;99.90;;;;;;5075849;28;19924;-74
2020/12/07 08:26:41;;;;;;;;;;;4.50;99.90;;;;;;5073726;28;20031;-74
2020/12/07 08:29:08;;;;;;;;;;;4.50;99.90;;;;;;5074317;28;20015;-74
2020/12/07 08:31:34;;;;;;;;;;;4.60;99.90;;;;;;5075058;28;20373;-74
2020/12/07 08:34:04;;;;;;;;;;;4.60;99.90;;;;;;5076187;28;19931;-74
2020/12/07 08:36:31;;;;;;;;;;;4.60;99.90;;;;;;5075297;28;19952;-74
2020/12/07 08:38:58;;;;;;;;;;;4.60;99.90;;;;;;5054029;28;19948;-74
2020/12/07 08:41:25;;;;;;;;;;;4.60;99.90;;;;;;5075286;28;19924;-74
2020/12/07 08:43:52;;;;;;;;;;;4.60;99.90;;;;;;5082148;28;19929;-74
2020/12/07 08:46:20;;;;;;;;;;;4.70;99.90;;;;;;5075294;28;19924;-74
2020/12/07 08:48:46;;;;;;;;;;;4.60;99.90;;;;;;5082445;28;20402;-74
2020/12/07 08:51:14;;;;;;;;;;;4.70;99.90;;;;;;5080568;28;20302;-74
2020/12/07 08:53:40;;;;;;;;;;;4.80;99.90;;;;;;5079577;28;19928;-73
2020/12/07 08:56:08;;;;;;;;;;;4.80;99.90;;;;;;5095199;28;19924;-73
2020/12/07 08:58:34;;;;;;;;;;;4.80;99.90;;;;;;5092509;28;19924;-73
2020/12/07 09:01:01;;;;;;;;;;;4.90;99.90;;;;;;5094586;28;20019;-73
2020/12/07 09:03:28;;;;;;;;;;;5.00;99.90;;;;;;5092288;28;19931;-73
2020/12/07 09:05:54;;;;;;;;;;;5.10;99.90;;;;;;5093179;28;19989;-72
2020/12/07 09:08:21;;;;;;;;;;;5.10;99.90;;;;;;5083988;28;20380;-72
2020/12/07 09:10:48;;;;;;;;;;;5.20;99.90;;;;;;5054842;28;19924;-72
2020/12/07 09:13:14;;;;;;;;;;;5.20;99.90;;;;;;5074743;28;19924;-72
2020/12/07 09:15:41;;;;;;;;;;;5.40;99.90;;;;;;5089937;28;19928;-73
2020/12/07 09:18:07;;;;;;;;;;;5.40;99.90;;;;;;5095284;28;20011;-72
2020/12/07 09:20:33;;;;;;;;;;;5.40;99.90;;;;;;5088009;28;19931;-72
2020/12/07 09:23:00;;;;;;;;;;;5.50;99.90;;;;;;5094244;28;20011;-73
2020/12/07 09:25:27;;;;;;;;;;;5.70;99.90;;;;;;5091957;28;19924;-73
2020/12/07 09:27:54;;;;;;;;;;;5.90;99.90;;;;;;5094023;28;19931;-73
2020/12/07 09:30:20;;;;;;;;;;;6.00;99.90;;;;;;5091836;28;19951;-73
2020/12/07 09:32:46;;;;;;;;;;;6.40;99.90;;;;;;5085289;28;19924;-73
2020/12/07 09:35:13;;;;;;;;;;;6.70;99.90;;;;;;5092540;28;19924;-72
2020/12/07 09:37:40;;;;;;;;;;;6.70;99.90;;;;;;5093989;28;19959;-73
2020/12/07 09:40:06;;;;;;;;;;;6.60;99.90;;;;;;5091522;28;19970;-72
2020/12/07 09:42:34;;;;;;;;;;;6.70;99.90;;;;;;5076624;28;19928;-73
2020/12/07 09:45:00;;;;;;;;;;;6.50;99.90;;;;;;5078909;28;22592;-72
2020/12/07 09:47:27;;;;;;;;;;;6.70;99.90;;;;;;5074027;28;20015;-73
2020/12/07 09:49:53;;;;;;;;;;;6.70;99.90;;;;;;5062134;28;19924;-73
2020/12/07 09:52:20;;;;;;;;;;;6.40;99.90;;;;;;5093382;28;19931;-72
2020/12/07 09:54:47;;;;;;;;;;;6.30;99.90;;;;;;5093401;28;19967;-72
2020/12/07 09:57:13;;;;;;;;;;;6.20;99.90;;;;;;5091569;28;20380;-72
2020/12/07 09:59:41;;;;;;;;;;;6.10;99.90;;;;;;5093146;28;19924;-73
2020/12/07 10:02:08;;;;;;;;;;;6.00;99.90;;;;;;5091890;28;19924;-72
2020/12/07 10:04:34;;;;;;;;;;;5.90;99.90;;;;;;5094034;28;19928;-72
2020/12/07 10:07:01;;;;;;;;;;;5.90;99.90;;;;;;5090440;28;19932;-72
2020/12/07 10:09:27;;;;;;;;;;;5.80;99.90;;;;;;5093086;28;20296;-74
2020/12/07 10:11:54;;;;;;;;;;;5.60;99.90;;;;;;5090381;28;19973;-72
2020/12/07 10:14:20;;;;;;;;;;;5.50;99.90;;;;;;5093775;28;19924;-72
2020/12/07 10:16:47;;;;;;;;;;;5.40;99.90;;;;;;5090125;28;19924;-72
2020/12/07 10:19:14;;;;;;;;;;;5.40;99.90;;;;;;5093457;28;19970;-72
2020/12/07 10:21:40;;;;;;;;;;;5.30;99.90;;;;;;5090159;28;19924;-73
2020/12/07 10:24:07;;;;;;;;;;;5.30;99.90;;;;;;5093540;28;19924;-72
2020/12/07 10:26:34;;;;;;;;;;;5.40;99.90;;;;;;5091235;28;19924;-72
2020/12/07 10:29:00;;;;;;;;;;;5.40;99.90;;;;;;5092348;28;19989;-72
2020/12/07 10:31:27;;;;;;;;;;;5.40;99.90;;;;;;5093390;28;20415;-72
2020/12/07 10:33:54;;;;;;;;;;;5.40;99.90;;;;;;5090720;28;20348;-72
2020/12/07 10:36:23;;;;;;;;;;;5.50;99.90;;;;;;5093262;28;19934;-72
2020/12/07 10:38:49;;;;;;;;;;;5.60;99.90;;;;;;5071856;28;19924;-73
2020/12/07 10:41:16;;;;;;;;;;;5.50;99.90;;;;;;5093417;28;19923;-73
2020/12/07 10:43:42;;;;;;;;;;;5.60;99.90;;;;;;5089543;28;20014;-74
2020/12/07 10:46:09;;;;;;;;;;;5.60;99.90;;;;;;5093093;28;19924;-74
2020/12/07 10:48:35;;;;;;;;;;;5.70;99.90;;;;;;5072023;28;19977;-74
2020/12/07 10:51:02;;;;;;;;;;;5.70;99.90;;;;;;5079535;28;20007;-74
2020/12/07 10:53:29;;;;;;;;;;;5.70;99.90;;;;;;5070724;28;20347;-75
2020/12/07 10:55:55;;;;;;;;;;;5.60;99.90;;;;;;5071847;28;19930;-75
2020/12/07 10:58:22;;;;;;;;;;;5.60;99.90;;;;;;5077255;28;19931;-75
2020/12/07 11:00:51;;;;;;;;;;;5.70;99.90;;;;;;5074092;28;19930;-75
2020/12/07 11:03:17;;;;;;;;;;;5.70;99.90;;;;;;5085194;28;19947;-75
2020/12/07 11:05:43;;;;;;;;;;;5.90;99.90;;;;;;5071473;28;19970;-75
2020/12/07 11:08:17;;;;;;;;;;;5.80;99.90;;;;;;5072073;28;19986;-74
2020/12/07 11:10:43;;;;;;;;;;;5.80;99.90;;;;;;5072947;28;19925;-74
2020/12/07 11:13:22;;;;;;;;;;;5.70;99.90;;;;;;5069736;28;19939;-74
2020/12/07 11:15:48;;;;;;;;;;;5.70;99.90;;;;;;5071578;28;19978;-74
2020/12/07 11:18:14;;;;;;;;;;;5.70;99.90;;;;;;5072110;28;19946;-74
2020/12/07 11:20:41;;;;;;;;;;;5.60;99.90;;;;;;5089536;28;19936;-75
2020/12/07 11:23:07;;;;;;;;;;;5.60;99.90;;;;;;5092836;28;20279;-74
2020/12/07 11:25:34;;;;;;;;;;;5.50;99.90;;;;;;5075451;28;19924;-74
2020/12/07 11:28:01;;;;;;;;;;;5.50;99.90;;;;;;5071629;28;20218;-74
2020/12/07 11:30:27;;;;;;;;;;;5.40;99.90;;;;;;5082759;28;20369;-74
2020/12/07 11:32:53;;;;;;;;;;;5.40;99.90;;;;;;5087064;28;20019;-74
2020/12/07 11:35:20;;;;;;;;;;;5.40;99.90;;;;;;5070162;28;19925;-74
2020/12/07 11:37:50;;;;;;;;;;;5.30;99.90;;;;;;5071569;28;19928;-75
2020/12/07 11:40:26;;;;;;;;;;;5.40;99.90;;;;;;5079605;28;19924;-74
2020/12/07 11:43:02;;;;;;;;;;;5.40;99.90;;;;;;5091383;28;19931;-75
2020/12/07 11:45:29;;;;;;;;;;;5.40;99.90;;;;;;5082749;28;20013;-73
2020/12/07 11:47:55;;;;;;;;;;;5.30;99.90;;;;;;5091766;28;20023;-73
2020/12/07 11:50:21;;;;;;;;;;;5.50;99.90;;;;;;5088822;28;19928;-73
2020/12/07 11:52:47;;;;;;;;;;;5.40;99.90;;;;;;5073415;28;20019;-73
2020/12/07 11:55:14;;;;;;;;;;;5.50;99.90;;;;;;5089747;28;19932;-73
2020/12/07 11:57:40;;;;;;;;;;;5.50;99.90;;;;;;5073337;28;19924;-73
2020/12/07 12:00:07;;;;;;;;;;;5.40;99.90;;;;;;5070996;28;20338;-72
2020/12/07 12:02:34;;;;;;;;;;;5.30;99.90;;;;;;5091989;28;19928;-74
2020/12/07 12:05:00;;;;;;;;;;;5.20;99.90;;;;;;5078051;28;19925;-74
2020/12/07 12:07:26;;;;;;;;;;;5.30;99.90;;;;;;5088133;28;19924;-75
2020/12/07 12:09:53;;;;;;;;;;;5.30;99.90;;;;;;5079295;28;19924;-75
2020/12/07 12:12:20;;;;;;;;;;;5.30;99.90;;;;;;5086122;28;19928;-74
2020/12/07 12:14:46;;;;;;;;;;;5.30;99.90;;;;;;5088486;28;20011;-75
2020/12/07 12:17:13;;;;;;;;;;;5.30;99.90;;;;;;5083300;28;20035;-74
2020/12/07 12:19:40;;;;;;;;;;;5.40;99.90;;;;;;5091050;28;19931;-75
2020/12/07 12:22:06;;;;;;;;;;;5.40;99.90;;;;;;5084866;28;19924;-74
2020/12/07 12:24:33;;;;;;;;;;;5.50;99.90;;;;;;5091875;28;20016;-74
2020/12/07 12:26:59;;;;;;;;;;;5.50;99.90;;;;;;5103878;28;20200;-75
2020/12/07 12:29:25;;;;;;;;;;;5.50;99.90;;;;;;5091248;28;19955;-75
2020/12/07 12:31:52;;;;;;;;;;;5.60;99.90;;;;;;5088333;28;19928;-74
2020/12/07 12:34:19;;;;;;;;;;;5.60;99.90;;;;;;5075806;28;20043;-72
2020/12/07 12:36:47;;;;;;;;;;;5.60;99.90;;;;;;5072199;28;20372;-75
2020/12/07 12:39:14;;;;;;;;;;;5.60;99.90;;;;;;5091744;28;20337;-74
2020/12/07 12:41:40;;;;;;;;;;;5.80;99.90;;;;;;5090900;28;20380;-75
2020/12/07 12:44:08;;;;;;;;;;;5.70;99.90;;;;;;5089508;28;20011;-74
2020/12/07 12:46:34;;;;;;;;;;;5.70;99.90;;;;;;5074597;28;19978;-74
2020/12/07 12:49:01;;;;;;;;;;;5.90;99.90;;;;;;5053070;28;19934;-74
2020/12/07 12:51:28;;;;;;;;;;;5.90;99.90;;;;;;5075056;28;19928;-76
2020/12/07 12:53:54;;;;;;;;;;;5.90;99.90;;;;;;5071476;28;19936;-75
2020/12/07 12:56:21;;;;;;;;;;;5.80;99.90;;;;;;5075109;28;19970;-74
2020/12/07 12:58:47;;;;;;;;;;;5.80;99.90;;;;;;5071611;28;19931;-75
2020/12/07 13:01:14;;;;;;;;;;;5.90;99.90;;;;;;5074936;28;20031;-74
2020/12/07 13:03:41;;;;;;;;;;;5.90;99.90;;;;;;5071206;28;19928;-75
2020/12/07 13:06:07;;;;;;;;;;;5.90;99.90;;;;;;5074912;28;19968;-73
2020/12/07 13:08:34;;;;;;;;;;;5.90;99.90;;;;;;5073323;28;19970;-74
2020/12/07 13:11:01;;;;;;;;;;;5.90;99.90;;;;;;5073829;28;19932;-74
2020/12/07 13:13:27;;;;;;;;;;;5.90;99.90;;;;;;5054318;28;19978;-75
2020/12/07 13:15:58;;;;;;;;;;;5.90;99.90;;;;;;5073687;28;20022;-74
2020/12/07 13:18:26;;;;;;;;;;;6.00;99.90;;;;;;5071821;28;19939;-74
2020/12/07 13:21:00;;;;;;;;;;;5.90;99.90;;;;;;5073572;28;19931;-74
2020/12/07 13:23:31;;;;;;;;;;;5.90;99.90;;;;;;5072519;28;19995;-74
2020/12/07 13:26:06;;;;;;;;;;;5.80;99.90;;;;;;5073966;28;19970;-74
2020/12/07 13:28:32;;;;;;;;;;;6.00;99.90;;;;;;5054237;28;20292;-74
2020/12/07 13:30:59;;;;;;;;;;;6.20;99.90;;;;;;5073802;28;20023;-74
2020/12/07 13:33:25;;;;;;;;;;;6.20;99.90;;;;;;5074249;28;20354;-74
2020/12/07 13:35:51;;;;;;;;;;;6.40;99.90;;;;;;5071688;28;19935;-74
2020/12/07 13:38:18;;;;;;;;;;;6.40;99.90;;;;;;5074479;28;19932;-74
2020/12/07 13:40:45;;;;;;;;;;;6.50;99.90;;;;;;5070567;28;20015;-74
2020/12/07 13:43:12;;;;;;;;;;;6.60;99.90;;;;;;5073981;28;19929;-73
2020/12/07 13:45:39;;;;;;;;;;;6.40;99.90;;;;;;5071597;28;19979;-73
2020/12/07 13:48:05;;;;;;;;;;;6.50;99.90;;;;;;5074012;28;19924;-73
2020/12/07 13:50:32;;;;;;;;;;;6.60;99.90;;;;;;5070889;28;19928;-73
2020/12/07 13:52:58;;;;;;;;;;;6.70;99.90;;;;;;5072766;28;19975;-73
2020/12/07 13:55:25;;;;;;;;;;;6.70;99.90;;;;;;5080486;28;19931;-73
2020/12/07 13:57:52;;;;;;;;;;;6.80;99.90;;;;;;5093151;28;20043;-73
2020/12/07 14:00:19;;;;;;;;;;;7.00;99.90;;;;;;5091062;28;19924;-72
2020/12/07 14:02:45;;;;;;;;;;;6.70;99.90;;;;;;5093282;28;19924;-73
2020/12/07 14:05:12;;;;;;;;;;;6.60;99.90;;;;;;5080065;28;19935;-74
2020/12/07 14:07:38;;;;;;;;;;;6.50;99.90;;;;;;5094687;28;19977;-73
2020/12/07 14:10:05;;;;;;;;;;;6.50;99.90;;;;;;5060586;28;19932;-73
2020/12/07 14:12:32;;;;;;;;;;;6.40;99.90;;;;;;5093895;28;20478;-73
2020/12/07 14:15:00;;;;;;;;;;;6.30;99.90;;;;;;5077598;28;19970;-73
2020/12/07 14:17:30;;;;;;;;;;;6.30;99.90;;;;;;5068999;28;19920;-73
2020/12/07 14:20:04;;;;;;;;;;;6.20;99.90;;;;;;5090283;28;19920;-74
2020/12/07 14:22:43;;;;;;;;;;;6.10;99.90;;;;;;5071552;28;19927;-74
2020/12/07 14:25:26;;;;;;;;;;;5.90;99.90;;;;;;5067584;28;19920;-72
2020/12/07 14:28:16;;;;;;;;;;;5.90;99.90;;;;;;5065162;28;19950;-72
2020/12/07 14:31:10;;;;;;;;;;;5.70;99.90;;;;;;5070954;28;19927;-75
2020/12/07 14:42:11;;;;;;;;;;;5.20;99.90;;;;;;5041824;28;20365;-73
2020/12/07 14:44:41;;;;;;;;;;;5.20;99.90;;;;;;5063602;28;19920;-73
2020/12/07 14:47:08;;;;;;;;;;;5.10;99.90;;;;;;5079634;28;19963;-73
2020/12/07 14:49:35;;;;;;;;;;;5.10;99.90;;;;;;5077425;28;19973;-73
2020/12/07 14:52:04;;;;;;;;;;;5.00;99.90;;;;;;5073041;28;19938;-73
2020/12/07 14:54:34;;;;;;;;;;;5.00;99.90;;;;;;5092065;28;19931;-73
2020/12/07 15:03:14;;;;;;;;;;;4.90;99.90;;;;;;5089807;28;19920;-78
2020/12/07 15:05:41;;;;;;;;;;;4.80;99.90;;;;;;5072923;28;19924;-75
2020/12/07 15:13:53;;;;;;;;;;;4.80;99.90;;;;;;5081560;28;19924;-75
2020/12/07 15:16:20;;;;;;;;;;;4.80;99.90;;;;;;5089928;28;19931;-74
2020/12/07 15:18:47;;;;;;;;;;;4.90;99.90;;;;;;5097320;28;19924;-75
2020/12/07 15:21:15;;;;;;;;;;;4.90;99.90;;;;;;5112205;28;19970;-73
2020/12/07 15:23:41;;;;;;;;;;;4.90;99.90;;;;;;5108903;28;19931;-75